Time;durP1;ratioP1;P1;durP2;ratioP2;P2;SDS_P1;SDS_P2;PMS_P1;PMS_P2;Temp;Humidity;BMP_temperature;BMP_pressure;BME280_temperature;BME280_humidity;BME280_pressure;Samples;Min_cycle;Max_cycle;Signal;HPM_P1;HPM_P2
2021/12/02 00:02:26;;;;;;;0.17;0.10;;;5.80;99.90;;;;;;10051262;28;20057;-89
2021/12/02 00:07:28;;;;;;;0.50;0.10;;;5.70;99.90;;;;;;10059179;28;20140;-90
2021/12/02 00:12:29;;;;;;;0.90;0.10;;;5.80;99.90;;;;;;10057003;28;20050;-89
2021/12/02 00:17:36;;;;;;;0.20;0.10;;;5.70;99.90;;;;;;10047156;28;20594;-89
2021/12/02 00:22:57;;;;;;;0.82;0.10;;;5.70;99.90;;;;;;10050537;28;20069;-89
2021/12/02 00:28:01;;;;;;;0.22;0.00;;;5.60;99.90;;;;;;10079243;28;20101;-89
2021/12/02 00:33:03;;;;;;;0.90;0.10;;;5.60;99.90;;;;;;10093667;28;20063;-89
2021/12/02 00:38:08;;;;;;;2.58;0.10;;;5.60;99.90;;;;;;10031382;29;20122;-89
2021/12/02 00:43:10;;;;;;;0.30;0.00;;;5.60;99.90;;;;;;10051736;28;20716;-89
2021/12/02 00:48:13;;;;;;;1.33;0.20;;;5.60;99.90;;;;;;10052429;28;20146;-89
2021/12/02 00:53:22;;;;;;;0.63;0.10;;;5.50;99.90;;;;;;10064451;28;20037;-89
2021/12/02 00:58:24;;;;;;;2.08;0.20;;;5.50;99.90;;;;;;10055628;28;20065;-89
2021/12/02 01:03:31;;;;;;;0.45;0.10;;;5.50;99.90;;;;;;10041804;28;20056;-89
2021/12/02 01:08:36;;;;;;;0.63;0.03;;;5.50;99.90;;;;;;10044627;28;20083;-89
2021/12/02 01:13:38;;;;;;;0.30;0.10;;;5.50;99.90;;;;;;10063963;28;20403;-89
2021/12/02 01:18:40;;;;;;;2.58;0.10;;;5.60;99.90;;;;;;10060513;28;22666;-90
2021/12/02 01:23:43;;;;;;;1.13;0.20;;;5.50;99.90;;;;;;10064747;28;20493;-89
2021/12/02 01:28:49;;;;;;;5.15;0.35;;;5.50;99.90;;;;;;10042211;29;20108;-89
2021/12/02 01:33:51;;;;;;;0.75;0.35;;;5.50;99.90;;;;;;10038032;28;20053;-89
2021/12/02 01:38:53;;;;;;;1.75;0.17;;;5.60;99.90;;;;;;10068800;28;20061;-89
2021/12/02 01:43:55;;;;;;;0.65;0.30;;;5.60;99.90;;;;;;10065852;28;20049;-89
2021/12/02 01:49:03;;;;;;;1.15;0.20;;;5.60;99.90;;;;;;10064556;29;20504;-89
2021/12/02 01:54:11;;;;;;;1.15;0.32;;;5.60;99.90;;;;;;10052577;29;20073;-89
2021/12/02 01:59:19;;;;;;;1.42;0.30;;;5.60;99.90;;;;;;10050387;28;20053;-89
2021/12/02 02:04:21;;;;;;;2.38;0.30;;;5.60;99.90;;;;;;10041418;28;20511;-89
2021/12/02 02:09:26;;;;;;;1.40;0.20;;;5.60;99.90;;;;;;10056109;28;20057;-89
2021/12/02 02:14:28;;;;;;;2.13;0.30;;;5.60;99.90;;;;;;10061853;28;20503;-89
2021/12/02 02:19:32;;;;;;;2.50;0.30;;;5.60;99.90;;;;;;10074410;28;20133;-89
2021/12/02 02:24:34;;;;;;;0.70;0.10;;;5.60;99.90;;;;;;10066653;28;20057;-89
2021/12/02 02:29:36;;;;;;;4.43;0.47;;;5.60;99.90;;;;;;10056502;28;20057;-89
2021/12/02 02:34:38;;;;;;;0.85;0.20;;;5.60;99.90;;;;;;10067630;28;20053;-89
2021/12/02 02:39:40;;;;;;;2.35;0.22;;;5.50;99.90;;;;;;10055759;28;20058;-89
2021/12/02 02:44:42;;;;;;;2.45;0.13;;;5.60;99.90;;;;;;10059941;28;20056;-89
2021/12/02 02:49:47;;;;;;;3.40;0.20;;;5.50;99.90;;;;;;10036458;28;20057;-88
2021/12/02 02:54:50;;;;;;;4.13;0.10;;;5.50;99.90;;;;;;10067937;28;20060;-89
2021/12/02 03:10:15;;;;;;;0.77;0.17;;;5.50;99.90;;;;;;10062039;28;20064;-89
2021/12/02 03:20:20;;;;;;;0.20;0.10;;;5.40;99.90;;;;;;10072509;28;20043;-89
2021/12/02 03:25:22;;;;;;;0.20;0.10;;;5.40;99.90;;;;;;10048630;28;20057;-89
2021/12/02 03:30:24;;;;;;;0.50;0.10;;;5.40;99.90;;;;;;10063107;28;20053;-89
2021/12/02 03:35:26;;;;;;;1.55;0.10;;;5.30;99.90;;;;;;10064124;28;20040;-89
2021/12/02 03:40:27;;;;;;;1.40;0.10;;;5.30;99.90;;;;;;10054583;28;20057;-89
2021/12/02 03:45:32;;;;;;;3.22;0.10;;;5.30;99.90;;;;;;10065015;28;20057;-89
2021/12/02 03:50:34;;;;;;;6.35;1.77;;;5.30;99.90;;;;;;10050347;28;20153;-89
2021/12/02 03:55:36;;;;;;;3.30;0.10;;;5.30;99.90;;;;;;10066034;28;20053;-89
2021/12/02 04:00:37;;;;;;;3.35;0.10;;;5.30;99.90;;;;;;10069584;28;20049;-89
2021/12/02 04:05:39;;;;;;;2.75;0.10;;;5.20;99.90;;;;;;10067770;28;20072;-88
2021/12/02 04:10:43;;;;;;;2.67;0.28;;;5.20;99.90;;;;;;10063078;28;20049;-88
2021/12/02 04:15:50;;;;;;;2.67;0.10;;;5.20;99.90;;;;;;10065180;28;20068;-89
2021/12/02 04:20:52;;;;;;;3.90;0.10;;;5.20;99.90;;;;;;10056542;28;20126;-89
2021/12/02 04:25:54;;;;;;;2.60;0.20;;;5.10;99.90;;;;;;10084198;28;20057;-89
2021/12/02 04:31:00;;;;;;;2.72;1.25;;;5.10;99.90;;;;;;10065517;28;20053;-89
2021/12/02 04:36:15;;;;;;;1.52;0.20;;;5.10;99.90;;;;;;10082604;28;20064;-89
2021/12/02 04:42:01;;;;;;;1.35;0.10;;;5.10;99.90;;;;;;10067045;28;20057;-89
2021/12/02 04:47:08;;;;;;;3.00;0.20;;;5.00;99.90;;;;;;10080717;28;20080;-89
2021/12/02 04:52:10;;;;;;;1.00;0.13;;;5.00;99.90;;;;;;10062442;28;20476;-89
2021/12/02 04:57:12;;;;;;;3.40;0.10;;;5.00;99.90;;;;;;10127178;28;20053;-89
2021/12/02 05:02:14;;;;;;;1.42;0.10;;;5.00;99.90;;;;;;10045643;28;20056;-89
2021/12/02 05:07:16;;;;;;;1.27;0.13;;;4.90;99.90;;;;;;10059777;28;20057;-89
2021/12/02 05:12:17;;;;;;;1.80;0.30;;;4.90;99.90;;;;;;10082615;28;20056;-89
2021/12/02 05:17:19;;;;;;;1.48;0.10;;;4.80;99.90;;;;;;10063689;28;20050;-88
2021/12/02 05:22:21;;;;;;;4.13;0.10;;;4.70;99.90;;;;;;10056669;28;20061;-88
2021/12/02 05:27:23;;;;;;;0.75;0.10;;;4.70;99.90;;;;;;10062138;28;20049;-88
2021/12/02 05:32:33;;;;;;;6.50;0.70;;;4.70;99.90;;;;;;10056141;28;20052;-89
2021/12/02 05:37:35;;;;;;;1.48;0.43;;;4.70;99.90;;;;;;10051243;28;20060;-89
2021/12/02 05:42:37;;;;;;;3.50;0.10;;;4.60;99.90;;;;;;10071144;28;20060;-89
2021/12/02 05:47:39;;;;;;;0.90;0.20;;;4.60;99.90;;;;;;10062195;28;20059;-89
2021/12/02 05:52:41;;;;;;;1.63;0.20;;;4.50;99.90;;;;;;10064131;28;20060;-88
2021/12/02 05:57:43;;;;;;;1.38;0.20;;;4.50;99.90;;;;;;10063262;28;20045;-89
2021/12/02 06:02:49;;;;;;;2.20;0.20;;;4.50;99.90;;;;;;10064271;28;20053;-89
2021/12/02 06:07:52;;;;;;;3.40;0.10;;;4.50;99.90;;;;;;10066285;28;20053;-89
2021/12/02 06:12:56;;;;;;;5.00;0.20;;;4.40;99.90;;;;;;10047440;28;20053;-89
2021/12/02 06:17:58;;;;;;;2.40;0.17;;;4.40;99.90;;;;;;10077878;28;20108;-89
2021/12/02 06:23:00;;;;;;;3.33;0.80;;;4.40;99.90;;;;;;10061684;28;20045;-89
2021/12/02 06:28:04;;;;;;;2.45;0.10;;;4.40;99.90;;;;;;10070641;28;20526;-89
2021/12/02 06:33:06;;;;;;;1.17;0.20;;;4.40;99.90;;;;;;10044410;29;20500;-89
2021/12/02 06:38:12;;;;;;;3.00;0.20;;;4.50;99.90;;;;;;10058153;28;20064;-89
2021/12/02 06:43:15;;;;;;;0.22;0.10;;;4.40;99.90;;;;;;10049978;29;20052;-89
2021/12/02 06:48:18;;;;;;;2.22;0.10;;;4.40;99.90;;;;;;10062588;29;20225;-89
2021/12/02 06:53:20;;;;;;;1.73;0.10;;;4.40;99.90;;;;;;10060698;28;20057;-89
2021/12/02 06:58:23;;;;;;;1.48;0.32;;;4.40;99.90;;;;;;10052085;28;20059;-89
2021/12/02 07:03:25;;;;;;;3.85;0.25;;;4.40;99.90;;;;;;10047125;29;20497;-88
2021/12/02 07:08:29;;;;;;;3.40;0.20;;;4.30;99.90;;;;;;10061381;28;20136;-89
2021/12/02 07:13:40;;;;;;;0.30;0.10;;;4.40;99.90;;;;;;10065942;28;20052;-89
2021/12/02 07:18:47;;;;;;;1.42;0.13;;;4.30;99.90;;;;;;10051391;29;20053;-89
2021/12/02 07:23:50;;;;;;;0.88;0.10;;;4.30;99.90;;;;;;10073142;28;20331;-89
2021/12/02 07:28:51;;;;;;;4.18;0.10;;;4.30;99.90;;;;;;10079397;28;20139;-89
2021/12/02 07:33:57;;;;;;;2.92;0.20;;;4.30;99.90;;;;;;10055812;28;20053;-89
2021/12/02 07:39:01;;;;;;;4.25;0.10;;;4.30;99.90;;;;;;10079161;28;20049;-89
2021/12/02 07:44:03;;;;;;;2.03;0.10;;;4.30;99.90;;;;;;10066036;28;20501;-89
2021/12/02 07:49:12;;;;;;;0.63;0.17;;;4.30;99.90;;;;;;10058305;28;20048;-89
2021/12/02 07:54:17;;;;;;;0.63;0.10;;;4.30;99.90;;;;;;10071984;28;20076;-89
2021/12/02 07:59:19;;;;;;;1.65;0.20;;;4.40;99.90;;;;;;10062693;28;20053;-89
2021/12/02 08:04:21;;;;;;;1.15;0.17;;;4.40;99.90;;;;;;10058815;28;20044;-89
2021/12/02 08:09:23;;;;;;;0.30;0.10;;;4.50;99.90;;;;;;10061436;28;20045;-89
2021/12/02 08:14:26;;;;;;;1.83;0.68;;;4.50;99.90;;;;;;10081775;28;20057;-89
2021/12/02 08:19:27;;;;;;;2.65;0.20;;;4.40;99.90;;;;;;10070079;28;20064;-89
2021/12/02 08:24:29;;;;;;;2.38;0.40;;;4.40;99.90;;;;;;10058250;28;20116;-88
2021/12/02 08:29:32;;;;;;;1.50;0.20;;;4.40;99.90;;;;;;10075222;28;20052;-89
2021/12/02 08:34:34;;;;;;;1.65;0.30;;;4.50;99.90;;;;;;10048355;28;20518;-88
2021/12/02 08:39:36;;;;;;;1.67;0.20;;;4.60;99.90;;;;;;10069388;28;20077;-88
2021/12/02 08:44:40;;;;;;;1.85;0.20;;;4.60;99.90;;;;;;10073760;28;20073;-88
2021/12/02 08:49:42;;;;;;;0.75;0.30;;;4.60;99.90;;;;;;10054843;28;20053;-89
2021/12/02 08:54:44;;;;;;;1.80;0.30;;;4.60;99.90;;;;;;10051879;28;20053;-89
2021/12/02 08:59:49;;;;;;;0.60;0.38;;;4.70;99.90;;;;;;10056290;28;20427;-88
2021/12/02 09:04:52;;;;;;;0.43;0.30;;;4.80;99.90;;;;;;10050560;28;20060;-89
2021/12/02 09:09:54;;;;;;;4.70;0.20;;;4.80;99.90;;;;;;10065511;28;20055;-90
2021/12/02 09:14:56;;;;;;;0.68;0.25;;;4.90;99.90;;;;;;10053018;28;20077;-89
2021/12/02 09:19:58;;;;;;;0.73;0.30;;;5.00;99.90;;;;;;10066494;28;20053;-88
2021/12/02 09:24:59;;;;;;;2.67;0.20;;;5.20;99.90;;;;;;10052080;28;20061;-88
2021/12/02 09:30:02;;;;;;;0.40;0.20;;;5.20;99.90;;;;;;10043867;28;20050;-89
2021/12/02 09:35:05;;;;;;;1.00;0.20;;;5.30;99.90;;;;;;10071402;28;20501;-88
2021/12/02 09:40:10;;;;;;;0.95;0.20;;;5.30;99.90;;;;;;10054118;28;20417;-88
2021/12/02 09:45:14;;;;;;;2.40;0.40;;;5.40;99.90;;;;;;10069703;28;20049;-89
2021/12/02 09:50:23;;;;;;;1.58;0.30;;;5.50;99.90;;;;;;10060916;28;20519;-88
2021/12/02 09:55:33;;;;;;;1.08;0.25;;;5.50;99.90;;;;;;10063329;28;20056;-88
2021/12/02 10:00:46;;;;;;;2.17;0.20;;;5.50;99.90;;;;;;10055518;28;20068;-91
2021/12/02 10:06:09;;;;;;;0.88;0.20;;;5.40;99.90;;;;;;10055307;28;20057;-91
2021/12/02 10:12:00;;;;;;;0.63;0.17;;;5.30;99.90;;;;;;9982606;28;20052;-91
2021/12/02 10:17:13;;;;;;;2.03;0.38;;;5.30;99.90;;;;;;10066884;28;20373;-90
2021/12/02 10:22:21;;;;;;;1.60;0.30;;;5.20;99.90;;;;;;10060569;28;20408;-90
2021/12/02 10:27:23;;;;;;;2.10;0.30;;;5.20;99.90;;;;;;10125520;28;20052;-89
2021/12/02 10:32:29;;;;;;;1.25;0.40;;;5.30;99.90;;;;;;10052244;28;20504;-89
2021/12/02 10:37:36;;;;;;;1.23;0.30;;;5.40;99.90;;;;;;10060489;28;20057;-89
2021/12/02 10:42:42;;;;;;;1.47;0.50;;;5.50;99.90;;;;;;10068596;28;20073;-88
2021/12/02 10:47:52;;;;;;;1.83;0.30;;;5.70;99.70;;;;;;10067844;28;20296;-90
2021/12/02 10:53:01;;;;;;;0.40;0.30;;;5.70;99.90;;;;;;10074161;28;20440;-89
2021/12/02 10:58:04;;;;;;;3.90;0.50;;;5.90;99.80;;;;;;10054471;28;20057;-88
2021/12/02 11:03:14;;;;;;;0.40;0.28;;;5.90;98.60;;;;;;10048199;28;20049;-88
2021/12/02 11:08:18;;;;;;;0.20;0.20;;;5.80;99.80;;;;;;10074068;28;20135;-88
2021/12/02 11:13:25;;;;;;;1.65;0.60;;;5.70;99.50;;;;;;10070060;28;20061;-88
2021/12/02 11:18:29;;;;;;;1.17;0.35;;;5.50;98.20;;;;;;10076932;28;20133;-88
2021/12/02 11:23:45;;;;;;;0.50;0.20;;;5.40;99.50;;;;;;10039043;28;20075;-88
2021/12/02 11:28:47;;;;;;;0.63;0.15;;;5.50;99.70;;;;;;10078034;28;20087;-88
2021/12/02 11:33:52;;;;;;;0.30;0.20;;;5.50;98.70;;;;;;10079030;28;20081;-88
2021/12/02 11:38:57;;;;;;;0.55;0.40;;;5.30;99.10;;;;;;10058568;28;20052;-87
2021/12/02 11:44:00;;;;;;;0.90;0.20;;;5.20;99.90;;;;;;10041359;28;20088;-87
2021/12/02 11:49:02;;;;;;;0.30;0.15;;;5.20;99.90;;;;;;10040652;28;20057;-87
2021/12/02 11:54:04;;;;;;;0.47;0.30;;;5.10;99.30;;;;;;10064226;28;20053;-88
2021/12/02 11:59:06;;;;;;;1.10;0.30;;;5.10;98.90;;;;;;10065540;28;20053;-87
2021/12/02 12:04:10;;;;;;;0.60;0.35;;;5.20;99.90;;;;;;10061984;28;20562;-88
2021/12/02 12:09:17;;;;;;;0.40;0.20;;;5.00;99.90;;;;;;10060067;28;20048;-87
2021/12/02 12:14:34;;;;;;;0.82;0.30;;;4.80;99.90;;;;;;10068670;28;20053;-88
2021/12/02 12:19:47;;;;;;;0.70;0.30;;;4.70;99.90;;;;;;10094819;28;20049;-88
2021/12/02 12:24:52;;;;;;;1.80;0.30;;;4.70;99.90;;;;;;10067086;28;20060;-88
2021/12/02 12:30:00;;;;;;;0.65;0.40;;;4.60;99.90;;;;;;10052110;28;20512;-88
2021/12/02 12:40:43;;;;;;;0.65;0.30;;;4.90;99.90;;;;;;10079019;28;20054;-88
2021/12/02 12:45:45;;;;;;;0.45;0.30;;;4.90;99.90;;;;;;10067784;28;22461;-88
2021/12/02 12:50:47;;;;;;;2.03;0.40;;;5.00;99.90;;;;;;10067048;29;20050;-88
2021/12/02 12:55:50;;;;;;;0.50;0.30;;;5.10;99.90;;;;;;10076132;28;20060;-87
2021/12/02 13:01:17;;;;;;;0.20;0.20;;;5.20;99.90;;;;;;10064709;28;20057;-88
2021/12/02 13:06:25;;;;;;;0.95;0.45;;;5.00;99.90;;;;;;10083573;28;20087;-89
2021/12/02 13:11:31;;;;;;;0.28;0.20;;;4.70;99.90;;;;;;10070909;28;20210;-88
2021/12/02 13:16:36;;;;;;;0.82;0.30;;;4.70;99.90;;;;;;10064736;29;20104;-87
2021/12/02 13:21:40;;;;;;;1.80;0.50;;;4.70;99.90;;;;;;10069494;28;20132;-88
2021/12/02 13:27:05;;;;;;;1.85;0.52;;;4.60;99.90;;;;;;10050177;28;20041;-89
2021/12/02 13:32:09;;;;;;;0.57;0.40;;;4.80;99.90;;;;;;10053461;28;20061;-89
2021/12/02 13:37:13;;;;;;;1.23;0.43;;;4.80;99.90;;;;;;10065224;28;20083;-88
2021/12/02 13:42:16;;;;;;;0.63;0.40;;;4.80;99.90;;;;;;10068921;28;20071;-88
2021/12/02 13:47:27;;;;;;;2.25;1.02;;;4.80;99.90;;;;;;10048730;29;20065;-88
2021/12/02 13:57:49;;;;;;;0.90;0.40;;;4.80;99.90;;;;;;10080202;28;20064;-88
2021/12/02 14:02:59;;;;;;;1.60;0.40;;;4.90;99.90;;;;;;10072916;28;20052;-88
2021/12/02 14:08:11;;;;;;;3.08;0.40;;;4.90;97.70;;;;;;10074202;28;20045;-89
2021/12/02 14:13:18;;;;;;;0.50;0.30;;;4.90;97.30;;;;;;10079370;28;20041;-88
2021/12/02 14:18:23;;;;;;;1.15;0.38;;;4.80;97.10;;;;;;10079362;28;21232;-87
2021/12/02 14:23:28;;;;;;;1.92;0.30;;;4.80;97.30;;;;;;10057201;28;20063;-87
2021/12/02 14:28:34;;;;;;;0.60;0.30;;;4.60;96.60;;;;;;10076227;28;20168;-87
2021/12/02 14:33:42;;;;;;;2.30;0.32;;;4.50;96.20;;;;;;10072984;28;20052;-88
2021/12/02 14:38:45;;;;;;;;;;;4.40;98.00;;;;;;10060712;28;20499;-88
2021/12/02 14:43:50;;;;;;;0.98;0.30;;;4.40;98.60;;;;;;10052925;29;20410;-87
2021/12/02 14:48:58;;;;;;;1.77;0.65;;;4.40;98.20;;;;;;10065285;28;20077;-87
2021/12/02 14:54:00;;;;;;;0.95;0.30;;;4.40;98.30;;;;;;10064704;28;20121;-88
2021/12/02 14:59:20;;;;;;;1.17;0.40;;;4.40;98.70;;;;;;10057624;28;20133;-88
2021/12/02 15:04:24;;;;;;;1.65;0.30;;;4.30;99.70;;;;;;10062761;28;20057;-88
2021/12/02 15:09:33;;;;;;;2.22;0.60;;;4.20;99.30;;;;;;10079182;28;20040;-88
2021/12/02 15:14:47;;;;;;;0.65;0.50;;;4.20;99.90;;;;;;10049872;28;20048;-87
2021/12/02 15:19:50;;;;;;;4.82;0.50;;;4.10;99.90;;;;;;10053189;28;20040;-88
2021/12/02 15:25:13;;;;;;;2.38;0.70;;;4.00;99.90;;;;;;10054092;28;20501;-89
2021/12/02 15:30:18;;;;;;;1.65;0.60;;;3.90;99.90;;;;;;10057465;28;20040;-90
2021/12/02 15:35:20;;;;;;;1.10;0.43;;;3.80;99.90;;;;;;10044676;28;20083;-90
2021/12/02 15:40:22;;;;;;;0.60;0.40;;;3.80;99.90;;;;;;10021228;28;20045;-90
2021/12/02 15:45:25;;;;;;;0.85;0.50;;;3.80;99.90;;;;;;10056943;29;20056;-90
2021/12/02 15:50:29;;;;;;;5.40;0.70;;;3.80;99.90;;;;;;10085519;28;21001;-90
2021/12/02 15:55:31;;;;;;;0.75;0.50;;;3.90;99.90;;;;;;10078621;28;20045;-90
2021/12/02 16:00:35;;;;;;;3.25;0.90;;;3.90;99.90;;;;;;10063946;28;20080;-90
2021/12/02 16:05:52;;;;;;;1.48;0.38;;;3.90;99.90;;;;;;10075698;28;20053;-89
2021/12/02 16:11:08;;;;;;;3.72;0.60;;;3.90;99.90;;;;;;10061748;29;20080;-89
2021/12/02 16:16:10;;;;;;;0.73;0.40;;;3.90;99.90;;;;;;10076400;28;20042;-89
2021/12/02 16:21:13;;;;;;;0.80;0.40;;;3.80;99.90;;;;;;10085485;28;20079;-89
2021/12/02 16:26:15;;;;;;;1.77;1.05;;;3.80;99.90;;;;;;10071142;29;20487;-91
2021/12/02 16:31:17;;;;;;;2.33;0.50;;;3.80;99.90;;;;;;10083938;28;20049;-89
2021/12/02 16:36:19;;;;;;;2.53;0.65;;;3.80;99.90;;;;;;10062379;29;20045;-90
2021/12/02 16:42:14;;;;;;;1.10;0.68;;;3.70;99.90;;;;;;10061330;28;20053;-89
2021/12/02 16:47:16;;;;;;;2.28;0.50;;;3.70;99.90;;;;;;10086864;28;21215;-89
2021/12/02 16:52:19;;;;;;;3.50;0.70;;;3.70;99.90;;;;;;10066018;28;20162;-89
2021/12/02 16:57:21;;;;;;;1.38;0.50;;;3.80;99.90;;;;;;10083557;28;20049;-89
2021/12/02 17:02:24;;;;;;;2.83;0.75;;;3.80;99.90;;;;;;10073303;28;20127;-89
2021/12/02 17:07:28;;;;;;;2.15;0.77;;;3.80;99.90;;;;;;10082505;28;20091;-89
2021/12/02 17:12:31;;;;;;;4.85;1.25;;;3.80;99.90;;;;;;10061633;28;20137;-89
2021/12/02 17:17:33;;;;;;;5.32;1.00;;;3.80;99.90;;;;;;10067229;28;20063;-88
2021/12/02 17:22:37;;;;;;;2.17;0.85;;;3.80;99.90;;;;;;10065036;28;20076;-89
2021/12/02 17:27:40;;;;;;;6.28;2.55;;;3.80;99.90;;;;;;10083779;28;20060;-89
2021/12/02 17:32:42;;;;;;;3.25;0.93;;;3.70;99.90;;;;;;10064111;28;20048;-89
2021/12/02 17:37:45;;;;;;;3.90;1.98;;;3.70;99.90;;;;;;10082761;28;20067;-88
2021/12/02 17:42:48;;;;;;;4.30;1.23;;;3.70;99.90;;;;;;10085387;28;20170;-88
2021/12/02 17:47:52;;;;;;;6.70;1.92;;;3.60;99.90;;;;;;10071312;28;20065;-88
2021/12/02 17:52:54;;;;;;;7.50;1.52;;;3.50;99.90;;;;;;10065535;28;20092;-88
2021/12/02 17:57:56;;;;;;;5.13;1.80;;;3.40;99.90;;;;;;10063408;28;20054;-87
2021/12/02 18:02:59;;;;;;;9.80;3.08;;;3.30;99.90;;;;;;10086277;28;20081;-89
2021/12/02 18:08:02;;;;;;;6.40;1.58;;;3.20;99.90;;;;;;10081473;28;20076;-89
2021/12/02 18:13:04;;;;;;;7.72;2.67;;;3.10;99.90;;;;;;10058107;28;20104;-89
2021/12/02 18:18:10;;;;;;;4.30;1.70;;;3.00;99.90;;;;;;10062341;28;20483;-88
2021/12/02 18:23:12;;;;;;;4.75;2.08;;;2.90;99.90;;;;;;10082453;28;20052;-89
2021/12/02 18:28:14;;;;;;;5.60;2.35;;;2.90;99.90;;;;;;10088533;28;20060;-89
2021/12/02 18:33:17;;;;;;;4.80;2.33;;;2.80;99.90;;;;;;10060300;28;20053;-88
2021/12/02 18:38:19;;;;;;;7.55;2.55;;;2.70;99.90;;;;;;10074352;28;20056;-89
2021/12/02 18:43:24;;;;;;;9.43;3.60;;;2.60;99.90;;;;;;10082836;28;20051;-89
2021/12/02 18:48:27;;;;;;;8.77;3.92;;;2.50;99.90;;;;;;10061265;28;20057;-89
2021/12/02 18:53:30;;;;;;;8.45;4.45;;;2.50;99.90;;;;;;10076515;28;20049;-88
2021/12/02 18:58:32;;;;;;;7.85;2.88;;;2.40;99.90;;;;;;10077842;28;20053;-89
2021/12/02 19:03:37;;;;;;;7.18;2.40;;;2.40;99.90;;;;;;10054512;28;20068;-87
2021/12/02 19:29:57;;;;;;;7.25;2.72;;;2.10;99.90;;;;;;10077314;28;20058;-88
2021/12/02 19:34:59;;;;;;;7.40;2.90;;;2.00;99.90;;;;;;10083238;28;20634;-88
2021/12/02 19:40:22;;;;;;;7.85;3.60;;;2.10;99.90;;;;;;10092003;28;20060;-87
2021/12/02 19:45:25;;;;;;;5.38;2.65;;;2.20;99.90;;;;;;10074618;28;20523;-87
2021/12/02 19:50:28;;;;;;;8.43;3.45;;;2.40;99.90;;;;;;10070739;28;20057;-87
2021/12/02 19:55:29;;;;;;;5.72;3.25;;;2.50;99.90;;;;;;10078094;28;20061;-86
2021/12/02 20:00:32;;;;;;;7.18;3.05;;;2.50;99.90;;;;;;10076033;28;20049;-86
2021/12/02 20:05:34;;;;;;;9.18;2.60;;;2.50;99.90;;;;;;10084154;28;20053;-87
2021/12/02 20:10:36;;;;;;;6.28;2.70;;;2.60;99.90;;;;;;10078235;28;20051;-87
2021/12/02 20:15:52;;;;;;;11.45;5.38;;;2.70;99.90;;;;;;10078332;28;20475;-87
2021/12/02 20:20:55;;;;;;;8.00;3.25;;;2.70;99.90;;;;;;10083255;28;20057;-86
2021/12/02 20:25:57;;;;;;;10.43;3.58;;;2.70;99.90;;;;;;10074636;28;20049;-86
2021/12/02 20:31:03;;;;;;;7.78;3.42;;;2.80;99.90;;;;;;10073861;28;20050;-87
2021/12/02 20:36:06;;;;;;;6.72;2.28;;;2.80;99.90;;;;;;10067039;28;20042;-86
2021/12/02 20:41:08;;;;;;;2.35;1.10;;;2.80;99.90;;;;;;10070469;28;20061;-86
2021/12/02 20:46:11;;;;;;;2.60;1.13;;;2.80;99.90;;;;;;10059392;28;20056;-86
2021/12/02 20:51:18;;;;;;;2.67;1.20;;;2.80;99.90;;;;;;10090155;28;20066;-87
2021/12/02 20:56:24;;;;;;;2.65;1.02;;;2.90;99.90;;;;;;10082190;28;20101;-85
2021/12/02 21:01:26;;;;;;;2.72;1.40;;;2.80;99.90;;;;;;10065994;29;20061;-87
2021/12/02 21:06:28;;;;;;;1.70;0.75;;;2.80;99.90;;;;;;10070826;28;20063;-86
2021/12/02 21:11:33;;;;;;;2.17;1.00;;;2.70;99.90;;;;;;10065828;28;20056;-86
2021/12/02 21:16:35;;;;;;;2.60;1.13;;;2.70;99.90;;;;;;10075316;28;20059;-87
2021/12/02 21:21:37;;;;;;;2.85;0.82;;;2.60;99.90;;;;;;10057718;28;20056;-87
2021/12/02 21:26:40;;;;;;;2.78;1.25;;;2.60;99.90;;;;;;10061652;28;20049;-86
2021/12/02 21:31:42;;;;;;;2.22;1.30;;;2.70;99.90;;;;;;10055928;28;20057;-86
2021/12/02 21:36:53;;;;;;;2.08;1.00;;;2.60;99.90;;;;;;10060225;29;20054;-88
2021/12/02 21:42:11;;;;;;;4.22;1.40;;;2.60;99.90;;;;;;10063367;28;20612;-88
2021/12/02 21:47:13;;;;;;;2.65;0.98;;;2.50;99.90;;;;;;10078593;28;20103;-88
2021/12/02 21:52:15;;;;;;;2.15;0.88;;;2.50;99.90;;;;;;10074376;28;20053;-88
2021/12/02 21:57:23;;;;;;;1.35;0.73;;;2.50;99.90;;;;;;10066166;28;20053;-88
2021/12/02 22:02:26;;;;;;;3.35;0.82;;;2.40;99.90;;;;;;10088875;28;20484;-88
2021/12/02 22:07:28;;;;;;;3.78;0.93;;;2.30;99.90;;;;;;10077346;28;20048;-88
2021/12/02 22:12:30;;;;;;;4.82;1.20;;;2.30;99.90;;;;;;10074181;28;20527;-88
2021/12/02 22:17:32;;;;;;;2.42;0.80;;;2.20;99.90;;;;;;10046416;28;20045;-89
2021/12/02 22:22:40;;;;;;;1.85;0.68;;;2.20;99.90;;;;;;10078162;28;20036;-88
2021/12/02 22:27:43;;;;;;;1.60;0.80;;;2.20;99.90;;;;;;10067081;28;20059;-87
2021/12/02 22:32:45;;;;;;;1.83;0.77;;;2.10;99.90;;;;;;10070992;28;20069;-88
2021/12/02 22:38:02;;;;;;;2.38;0.80;;;2.10;99.90;;;;;;10071671;28;20053;-89
2021/12/02 22:43:05;;;;;;;2.75;1.00;;;2.10;99.90;;;;;;10057303;28;20528;-88
2021/12/02 22:48:12;;;;;;;4.35;0.90;;;2.00;99.90;;;;;;10062765;28;20064;-87
2021/12/02 22:53:30;;;;;;;2.13;0.77;;;2.00;99.90;;;;;;10068169;28;20053;-87
2021/12/02 22:58:32;;;;;;;3.10;0.75;;;1.90;99.90;;;;;;10062893;28;20053;-88
2021/12/02 23:03:37;;;;;;;1.45;0.85;;;1.90;99.90;;;;;;10080684;28;20067;-89
2021/12/02 23:08:39;;;;;;;1.25;0.50;;;1.90;99.90;;;;;;10068865;28;20052;-89
2021/12/02 23:13:46;;;;;;;1.20;0.60;;;1.80;99.90;;;;;;10057329;28;20084;-88
2021/12/02 23:18:49;;;;;;;3.35;0.90;;;1.80;99.90;;;;;;10076629;28;20152;-88
2021/12/02 23:23:51;;;;;;;2.53;0.85;;;1.80;99.90;;;;;;10069351;28;20550;-88
2021/12/02 23:28:54;;;;;;;2.85;1.20;;;1.70;99.90;;;;;;10067857;28;20053;-88
2021/12/02 23:34:32;;;;;;;1.83;0.68;;;1.70;99.90;;;;;;10068016;28;20559;-88
2021/12/02 23:39:36;;;;;;;3.15;1.02;;;1.70;99.90;;;;;;10051966;29;20068;-87
2021/12/02 23:44:38;;;;;;;2.08;0.90;;;1.70;99.90;;;;;;10075953;28;20053;-88
2021/12/02 23:49:40;;;;;;;2.30;1.17;;;1.70;99.90;;;;;;10057425;28;20097;-88
2021/12/02 23:54:42;;;;;;;3.15;1.08;;;1.60;99.90;;;;;;10065492;28;20053;-88
2021/12/02 23:59:44;;;;;;;1.42;0.80;;;1.70;99.90;;;;;;10052938;28;20049;-88
